Time;durP1;ratioP1;P1;durP2;ratioP2;P2;SDS_P1;SDS_P2;PMS_P1;PMS_P2;Temp;Humidity;BMP_temperature;BMP_pressure;BME280_temperature;BME280_humidity;BME280_pressure;Samples;Min_cycle;Max_cycle;Signal;HPM_P1;HPM_P2
2022/11/26 00:09:58;;;;;;;1999.90;999.90;;;7.40;99.90;;;;;;6741520;88;20234;-77
2022/11/26 00:19:58;;;;;;;1999.90;999.90;;;7.50;99.90;;;;;;6745771;88;20222;-77
2022/11/26 00:29:59;;;;;;;1999.90;999.90;;;7.50;99.90;;;;;;6743152;88;20190;-77
2022/11/26 00:40:01;;;;;;;1999.90;999.90;;;7.40;99.90;;;;;;6743950;88;20210;-77
2022/11/26 00:50:01;;;;;;;1999.90;999.90;;;7.50;99.90;;;;;;6742735;88;20263;-76
2022/11/26 01:00:19;;;;;;;1999.90;999.90;;;7.40;99.90;;;;;;6742392;88;20193;-76
2022/11/26 01:10:24;;;;;;;1999.90;999.90;;;7.10;99.90;;;;;;6744600;88;20727;-77
2022/11/26 01:20:28;;;;;;;1999.90;999.90;;;6.70;99.90;;;;;;6724525;76;20194;-75
2022/11/26 01:30:31;;;;;;;1999.90;999.90;;;6.50;99.90;;;;;;6701587;88;20256;-75
2022/11/26 01:40:43;;;;;;;1999.90;999.90;;;6.40;99.90;;;;;;6702365;88;20645;-75
2022/11/26 01:50:52;;;;;;;1999.90;999.90;;;6.30;99.90;;;;;;6713419;88;20659;-73
2022/11/26 02:00:52;;;;;;;1999.90;999.90;;;6.20;99.90;;;;;;6704047;88;20214;-74
2022/11/26 02:10:53;;;;;;;1999.90;999.90;;;5.80;99.90;;;;;;6698990;88;20691;-74
2022/11/26 02:21:05;;;;;;;1999.90;999.90;;;5.80;99.90;;;;;;6696623;88;20210;-73
2022/11/26 02:31:22;;;;;;;1999.90;999.90;;;5.80;99.90;;;;;;6701783;88;20976;-74
2022/11/26 02:41:22;;;;;;;1999.90;999.90;;;5.80;99.90;;;;;;6708327;88;20205;-73
2022/11/26 02:51:25;;;;;;;1999.90;999.90;;;5.70;99.90;;;;;;6721135;88;20267;-74
2022/11/26 03:01:40;;;;;;;1999.90;999.90;;;5.70;99.90;;;;;;6716233;88;20281;-73
2022/11/26 03:11:41;;;;;;;1999.90;999.90;;;5.70;99.90;;;;;;6712412;88;20878;-74
2022/11/26 03:21:41;;;;;;;1999.90;999.90;;;5.60;99.90;;;;;;6703253;88;20290;-74
2022/11/26 03:31:42;;;;;;;1999.90;999.90;;;5.40;99.90;;;;;;6711356;88;20260;-74
2022/11/26 03:41:43;;;;;;;1999.90;999.90;;;5.30;99.90;;;;;;6705659;88;20261;-74
2022/11/26 03:51:43;;;;;;;1999.90;999.90;;;5.40;99.90;;;;;;6707059;88;20179;-74
2022/11/26 04:01:44;;;;;;;1999.90;999.90;;;5.40;99.90;;;;;;6714186;88;20277;-74
2022/11/26 04:11:44;;;;;;;1999.90;999.90;;;5.40;99.90;;;;;;6710208;88;20206;-74
2022/11/26 04:21:45;;;;;;;1999.90;999.90;;;5.50;99.90;;;;;;6700265;88;20265;-74
2022/11/26 04:31:45;;;;;;;1999.90;999.90;;;5.40;99.90;;;;;;6700299;88;20217;-74
2022/11/26 04:41:46;;;;;;;1999.90;999.90;;;5.40;99.90;;;;;;6699639;88;20278;-74
2022/11/26 04:51:46;;;;;;;1999.90;999.90;;;5.30;99.90;;;;;;6697307;88;20225;-75
2022/11/26 05:01:47;;;;;;;1999.90;999.90;;;5.10;99.90;;;;;;6700717;88;20307;-74
2022/11/26 05:11:47;;;;;;;1999.90;999.90;;;4.90;99.90;;;;;;6709856;88;20293;-74
2022/11/26 05:21:48;;;;;;;1999.90;999.90;;;4.70;99.90;;;;;;6702812;88;20240;-74
2022/11/26 05:31:48;;;;;;;1999.90;999.90;;;4.70;99.90;;;;;;6704550;88;20754;-74
2022/11/26 05:41:49;;;;;;;1999.90;999.90;;;4.70;99.90;;;;;;6710355;88;20199;-74
2022/11/26 05:51:50;;;;;;;1999.90;999.90;;;4.70;99.90;;;;;;6701055;88;20212;-75
2022/11/26 06:01:50;;;;;;;1999.90;999.90;;;4.50;99.90;;;;;;6700897;88;20235;-75
2022/11/26 06:11:51;;;;;;;1999.90;999.90;;;4.60;99.90;;;;;;6698224;88;20186;-75
2022/11/26 06:21:51;;;;;;;1999.90;999.90;;;4.50;99.90;;;;;;6701327;88;20709;-75
2022/11/26 06:31:52;;;;;;;1999.90;999.90;;;4.50;99.90;;;;;;6696989;88;20209;-75
2022/11/26 06:41:53;;;;;;;1999.90;999.90;;;4.40;99.90;;;;;;6701774;88;20185;-75
2022/11/26 06:51:53;;;;;;;1999.90;999.90;;;4.50;99.90;;;;;;6701651;88;20391;-75
2022/11/26 07:01:54;;;;;;;1999.90;999.90;;;4.50;99.90;;;;;;6702678;88;20190;-75
2022/11/26 07:11:54;;;;;;;1999.90;999.90;;;4.50;99.90;;;;;;6705957;88;20616;-75
2022/11/26 07:21:55;;;;;;;1999.90;999.90;;;4.50;99.90;;;;;;6774181;77;20191;-78
2022/11/26 07:31:55;;;;;;;1999.90;999.90;;;4.60;99.90;;;;;;6773927;87;20750;-78
2022/11/26 07:41:56;;;;;;;1999.90;999.90;;;4.90;99.90;;;;;;6773269;87;20186;-78
2022/11/26 07:51:56;;;;;;;1999.90;999.90;;;5.20;99.90;;;;;;6771717;87;20241;-78
2022/11/26 08:01:57;;;;;;;1999.90;999.90;;;5.40;99.90;;;;;;6774430;87;20179;-78
2022/11/26 08:11:57;;;;;;;1999.90;999.90;;;5.30;99.90;;;;;;6775100;87;20285;-76
2022/11/26 08:21:58;;;;;;;1999.90;999.90;;;5.30;99.90;;;;;;6757578;87;20646;-78
2022/11/26 08:31:58;;;;;;;1999.90;999.90;;;5.30;99.90;;;;;;6771185;87;20248;-77
2022/11/26 08:41:59;;;;;;;1999.90;999.90;;;5.30;99.90;;;;;;6775435;87;20312;-79
2022/11/26 08:51:59;;;;;;;1999.90;999.90;;;5.40;99.90;;;;;;6775034;87;20204;-79
2022/11/26 09:02:00;;;;;;;1999.90;999.90;;;5.80;99.90;;;;;;6770465;87;20188;-79
2022/11/26 09:12:01;;;;;;;1999.90;999.90;;;6.20;99.90;;;;;;6770941;87;20585;-78
2022/11/26 09:22:02;;;;;;;1999.90;999.90;;;6.90;99.90;;;;;;6774218;87;20218;-79
2022/11/26 09:32:03;;;;;;;1999.90;999.90;;;7.20;99.90;;;;;;6772635;87;20201;-78
2022/11/26 09:42:25;;;;;;;1999.90;999.90;;;7.20;99.90;;;;;;6771266;87;20605;-79
2022/11/26 09:52:29;;;;;;;1999.90;999.90;;;7.40;99.90;;;;;;6765532;87;20688;-79
2022/11/26 10:02:30;;;;;;;1999.90;999.90;;;7.60;99.90;;;;;;6773503;87;20215;-79
2022/11/26 10:13:01;;;;;;;1999.90;999.90;;;7.70;99.90;;;;;;6778225;87;20204;-80
2022/11/26 10:23:24;;;;;;;1999.90;999.90;;;7.90;99.90;;;;;;6765072;88;20193;-79
2022/11/26 10:33:34;;;;;;;1999.90;999.90;;;8.00;99.90;;;;;;6754371;88;20272;-80
2022/11/26 10:43:34;;;;;;;1999.90;999.90;;;8.50;99.90;;;;;;6759026;88;20379;-79
2022/11/26 10:53:59;;;;;;;1999.90;999.90;;;8.60;99.90;;;;;;6766639;88;20183;-79
2022/11/26 11:04:00;;;;;;;1999.90;999.90;;;8.90;99.90;;;;;;6757662;88;20187;-79
2022/11/26 11:14:00;;;;;;;1999.90;999.90;;;9.20;99.90;;;;;;6755315;88;20225;-78
2022/11/26 11:24:12;;;;;;;1999.90;999.90;;;9.60;99.90;;;;;;6756030;88;20188;-79
2022/11/26 11:34:19;;;;;;;1999.90;999.90;;;9.60;99.90;;;;;;6757201;88;20632;-81
2022/11/26 11:44:30;;;;;;;1999.90;999.90;;;9.70;99.90;;;;;;6759301;88;20226;-82
2022/11/26 11:54:53;;;;;;;1999.90;999.90;;;9.90;99.90;;;;;;6759899;88;20184;-80
2022/11/26 12:05:18;;;;;;;1999.90;999.90;;;9.80;99.90;;;;;;6750510;88;20191;-77
2022/11/26 12:15:36;;;;;;;1999.90;999.90;;;9.90;99.90;;;;;;6765309;88;20210;-79
2022/11/26 12:25:38;;;;;;;1999.90;999.90;;;10.00;99.90;;;;;;6758286;88;20192;-79
2022/11/26 12:35:44;;;;;;;1999.90;999.90;;;10.10;99.90;;;;;;6761145;88;20595;-80
2022/11/26 12:45:59;;;;;;;1999.90;999.90;;;10.30;99.90;;;;;;6761655;88;20212;-81
2022/11/26 12:56:09;;;;;;;1999.90;999.90;;;10.40;99.90;;;;;;6764009;88;20902;-82
2022/11/26 13:06:43;;;;;;;1999.90;999.90;;;10.20;99.90;;;;;;6780975;88;20193;-84
2022/11/26 13:16:47;;;;;;;1999.90;999.90;;;10.20;99.90;;;;;;6758536;77;20200;-78
2022/11/26 13:27:11;;;;;;;1999.90;999.90;;;10.20;99.90;;;;;;6701644;88;20197;-78
2022/11/26 13:37:32;;;;;;;1999.90;999.90;;;9.60;99.90;;;;;;6699756;88;20189;-77
2022/11/26 13:47:39;;;;;;;1999.90;999.90;;;9.50;99.90;;;;;;6700310;88;20293;-76
2022/11/26 13:57:45;;;;;;;1999.90;999.90;;;9.30;99.90;;;;;;6699866;88;20189;-77
2022/11/26 14:07:46;;;;;;;1999.90;999.90;;;9.40;99.90;;;;;;6700258;88;20193;-77
2022/11/26 14:17:56;;;;;;;1999.90;999.90;;;9.80;99.90;;;;;;6706249;88;20717;-76
2022/11/26 14:27:57;;;;;;;1999.90;999.90;;;10.10;99.90;;;;;;6717291;88;20181;-77
2022/11/26 14:37:59;;;;;;;1999.90;999.90;;;9.60;99.90;;;;;;6715169;88;20362;-77
2022/11/26 14:48:02;;;;;;;1999.90;999.90;;;9.60;99.90;;;;;;6716922;88;20864;-78
2022/11/26 14:58:07;;;;;;;1999.90;999.90;;;9.40;99.90;;;;;;6724235;88;20324;-78
2022/11/26 15:08:19;;;;;;;1999.90;999.90;;;9.20;99.90;;;;;;6723860;88;20305;-78
2022/11/26 15:18:25;;;;;;;1999.90;999.90;;;9.10;99.90;;;;;;6718350;88;20198;-77
2022/11/26 15:28:27;;;;;;;1999.90;999.90;;;8.90;99.90;;;;;;6721297;88;20665;-79
2022/11/26 15:38:29;;;;;;;1999.90;999.90;;;8.70;99.90;;;;;;6719800;88;20186;-79
2022/11/26 15:48:52;;;;;;;1999.90;999.90;;;8.50;99.90;;;;;;6719175;88;20578;-79
2022/11/26 15:59:11;;;;;;;1999.90;999.90;;;8.30;99.90;;;;;;6717723;88;20242;-79
2022/11/26 16:09:11;;;;;;;1999.90;999.90;;;8.20;99.90;;;;;;6723935;88;21059;-80
2022/11/26 16:19:13;;;;;;;1999.90;999.90;;;8.10;99.90;;;;;;6734003;88;20193;-80
2022/11/26 16:29:14;;;;;;;1999.90;999.90;;;7.90;99.90;;;;;;6724109;88;20278;-80
2022/11/26 16:39:15;;;;;;;1999.90;999.90;;;7.90;99.90;;;;;;6721854;88;20194;-79
2022/11/26 16:49:16;;;;;;;1999.90;999.90;;;7.80;99.90;;;;;;6724735;88;20244;-79
2022/11/26 16:59:21;;;;;;;1999.90;999.90;;;7.70;99.90;;;;;;6725793;88;20206;-80
2022/11/26 17:09:22;;;;;;;1999.90;999.90;;;7.70;99.90;;;;;;6727301;88;20196;-78
2022/11/26 17:19:22;;;;;;;1999.90;999.90;;;7.60;99.90;;;;;;6723597;88;20222;-79
2022/11/26 17:29:23;;;;;;;1999.90;999.90;;;7.60;99.90;;;;;;6723952;88;20201;-78
2022/11/26 17:39:24;;;;;;;1999.90;999.90;;;7.40;99.90;;;;;;6722830;88;20224;-80
2022/11/26 17:49:24;;;;;;;1999.90;999.90;;;7.20;99.90;;;;;;6724832;88;20503;-79
2022/11/26 17:59:25;;;;;;;1999.90;999.90;;;7.10;99.90;;;;;;6724382;88;20789;-78
2022/11/26 18:09:25;;;;;;;1999.90;999.90;;;7.00;99.90;;;;;;6722421;88;20690;-79
2022/11/26 18:19:26;;;;;;;1999.90;999.90;;;6.90;99.90;;;;;;6726817;88;20216;-79
2022/11/26 18:29:27;;;;;;;1999.90;999.90;;;6.80;99.90;;;;;;6724152;88;20649;-79
2022/11/26 18:39:27;;;;;;;1999.90;999.90;;;6.70;99.90;;;;;;6722603;88;20239;-80
2022/11/26 18:49:28;;;;;;;1999.90;999.90;;;6.60;99.90;;;;;;6723108;88;20189;-78
2022/11/26 18:59:28;;;;;;;1999.90;999.90;;;6.70;99.90;;;;;;6723608;88;20197;-78
2022/11/26 19:09:29;;;;;;;1999.90;999.90;;;6.60;99.90;;;;;;6724110;88;20210;-78
2022/11/26 19:29:33;;;;;;;1999.90;999.90;;;6.40;99.90;;;;;;6778059;88;20196;-78
2022/11/26 19:39:34;;;;;;;1999.90;999.90;;;6.40;99.90;;;;;;6765698;88;20249;-77
2022/11/26 19:49:34;;;;;;;1999.90;999.90;;;6.30;99.90;;;;;;6771899;88;20212;-78
2022/11/26 19:59:35;;;;;;;1999.90;999.90;;;6.20;99.90;;;;;;6765341;88;20215;-79
2022/11/26 20:09:36;;;;;;;1999.90;999.90;;;6.10;99.90;;;;;;6768155;88;20192;-78
2022/11/26 20:19:37;;;;;;;1999.90;999.90;;;6.10;99.90;;;;;;6764145;87;20191;-78
2022/11/26 20:29:56;;;;;;;;;;;;;;;;;;;;;
2022/11/26 20:39:57;;;;;;;1999.90;999.90;;;6.00;99.90;;;;;;6747909;88;20254;-78
2022/11/26 20:49:57;;;;;;;1999.90;999.90;;;5.90;99.90;;;;;;6750730;88;20252;-78
2022/11/26 20:59:58;;;;;;;1999.90;999.90;;;5.80;99.90;;;;;;6747731;88;20204;-79
2022/11/26 21:09:59;;;;;;;1999.90;999.90;;;5.80;99.90;;;;;;6765855;88;20192;-80
2022/11/26 21:19:59;;;;;;;1999.90;999.90;;;5.80;99.90;;;;;;6776274;87;20779;-79
2022/11/26 21:30:03;;;;;;;1999.90;999.90;;;5.70;99.90;;;;;;6763795;88;20282;-81
2022/11/26 21:40:04;;;;;;;1999.90;999.90;;;5.70;99.90;;;;;;6756909;88;20190;-78
2022/11/26 21:50:05;;;;;;;1999.90;999.90;;;5.70;99.90;;;;;;6751696;88;20204;-78
2022/11/26 22:00:07;;;;;;;1999.90;999.90;;;5.60;99.90;;;;;;6750437;88;20244;-81
2022/11/26 22:10:08;;;;;;;1999.90;999.90;;;5.60;99.90;;;;;;6753274;88;20315;-79
2022/11/26 22:20:09;;;;;;;1999.90;999.90;;;5.70;99.90;;;;;;6752617;88;20263;-81
2022/11/26 22:30:10;;;;;;;1999.90;999.90;;;5.70;99.90;;;;;;6765806;88;20206;-81
2022/11/26 22:40:11;;;;;;;1999.90;999.90;;;5.70;99.90;;;;;;6766724;88;20161;-81
2022/11/26 22:50:11;;;;;;;1999.90;999.90;;;5.90;99.90;;;;;;6765556;88;20687;-81
2022/11/26 23:00:34;;;;;;;1999.90;999.90;;;5.90;99.90;;;;;;6760567;88;20643;-79
2022/11/26 23:10:35;;;;;;;1999.90;999.90;;;6.00;99.90;;;;;;6729652;88;20247;-80
2022/11/26 23:20:35;;;;;;;1999.90;999.90;;;6.00;99.90;;;;;;6758236;88;20192;-80
2022/11/26 23:30:36;;;;;;;1999.90;999.90;;;6.10;99.90;;;;;;6757469;88;20258;-81
2022/11/26 23:40:37;;;;;;;1999.90;999.90;;;6.10;99.90;;;;;;6756295;88;20215;-80
2022/11/26 23:50:41;;;;;;;1999.90;999.90;;;6.10;99.90;;;;;;6757226;88;20205;-81
